Mount Dora Half Marathon & 5K

Age Group Results

December 17, 2017


Run 4 a Cause


Men: Top Finishers 0- 0 1-13 14-16 17-19 20-24 25-29 30-34 35-39 40-44 45-49 50-54 55-59 60-64 65-69 70-74 75-79 80-99
Women: Top Finishers 1-13 14-16 17-19 20-24 25-29 30-34 35-39 40-44 45-49 50-54 55-59 60-64 65-69 70-74 75-79 80-99

5K

Top

Male Open Winners

Place Name City Bib No Age Overall Total Time Pace
1 Giovanni Calandra Eustis FL 58 33 1 19:20.2 6:14/M
2 Arthur Mauricio Moscatto Junior Marilandia Do Sul 327 35 5 20:34.5 6:38/M
3 Clayton Carter Leesburg FL 70 14 6 20:46.2 6:42/M
Top

Male No Age Provided

Place Name City Bib No Age Overall Total Time Pace
1 Unknown Partic. 2213 2213 228 38:01.5 12:16/M
2 Unknown Partic. 2215 2215 363 48:49.5 15:45/M
3 Unknown Partic. 2214 2214 375 49:53.1 16:05/M
Top

Male 13 and Under

Place Name City Bib No Age Overall Total Time Pace
1 Lucas Coan Ocoee FL 545 11 10 21:20.7 6:53/M
2 Jacob Coleman Owensboro KY 1103 12 27 24:50.3 8:01/M
3 Austin Wood Summerfield FL 517 12 36 25:39.6 8:16/M
4 Jack Morgan Mount Dora FL 560 13 55 27:15.5 8:47/M
5 Tyler Smith Oviedo FL 443 13 61 27:22.6 8:50/M
6 Kj Fofana Lake Mary FL 142 9 62 27:23.9 8:50/M
7 Kyto Hiruta Orlando FL 211 11 97 29:29.7 9:31/M
8 Joshua Lore Windermere FL 280 11 101 29:43.4 9:35/M
9 Everett McMullen Mount Dora FL 305 10 110 30:25.7 9:49/M
10 John Schwemin Mount Dora FL 415 11 187 35:22.6 11:25/M
11 Sinai S Reut 405 12 218 37:34.1 12:07/M
12 Shefa S Reut 404 9 223 37:46.5 12:11/M
13 Erik Clark Jacksonville FL 544 9 241 39:44.2 12:49/M
14 Brantely Strnad 2229 5 333 45:43.4 14:45/M
15 August Vossberg Umatilla FL 587 7 359 48:41.4 15:42/M
16 Paxson Evans Anchorage AK 131 5 427 55:14.5 17:49/M
17 Cameron West Port Orange FL 506 7 450 57:16.3 18:28/M
18 Christian Ayers Lake Mary FL 12 10 472 1:01:27.3 19:49/M
19 Simon Sunnenberg Longwood FL 460 6 486 1:07:14.9 21:41/M
Top

Male 14 to 16

Place Name City Bib No Age Overall Total Time Pace
1 Samuel McBride Tampa FL 297 14 9 21:10.0 6:50/M
2 Eli Keeling Leesburg FL 242 14 17 23:07.7 7:27/M
3 Seth Shockley Orlando FL 425 14 22 24:15.9 7:49/M
4 Brandon Triplett Eustis FL 583 14 30 25:10.4 8:07/M
5 Isaiah Hampton Mount Dora FL 196 15 35 25:38.4 8:16/M
6 Cole Singer Tavares FL 430 14 40 26:11.2 8:27/M
7 Cameron Baker-Small Leesburg FL 16 15 133 32:10.1 10:23/M
8 Dametrius McMullen Tavares FL 303 15 195 35:42.5 11:31/M
9 Antonio Rivera Mt Dora FL 382 14 226 37:52.9 12:13/M
10 Skyler Rivera Mt Dora FL 384 16 285 43:01.7 13:53/M
11 Damarcius McMullen Tavares FL 304 15 296 44:11.1 14:15/M
12 Alexander Nambo Tavares FL 332 14 298 44:13.7 14:16/M
13 Efrin Charly Tavares FL 76 14 299 44:15.0 14:16/M
14 Kaleb Fisher Tavares FL 139 14 311 44:52.3 14:28/M
15 Parker Lanter Tavares FL 264 15 327 45:38.7 14:43/M
16 Alec St Pierre Leesburg FL 574 15 329 45:39.7 14:44/M
17 Wesley Pitman Tavares FL 566 15 459 59:24.7 19:10/M
Top

Male 17 to 19

Place Name City Bib No Age Overall Total Time Pace
1 Renan M Paulino Londrina 354 17 38 26:01.6 8:24/M
2 Kyle Rogers Lakeland FL 394 19 205 36:38.9 11:49/M
3 Griffin Vinson Tavares FL 585 17 437 56:22.9 18:11/M
4 Max Epaillard Mount Dora FL 128 18 469 1:00:57.5 19:40/M
Top

Male 20 to 24

Place Name City Bib No Age Overall Total Time Pace
1 Jeremiah Goddard Apopka FL 172 20 41 26:14.4 8:28/M
2 Eric Oleen Cocoa FL 340 20 94 29:19.0 9:27/M
Top

Male 25 to 29

Place Name City Bib No Age Overall Total Time Pace
1 Justin Hunter New York NY 219 29 57 27:18.0 8:48/M
2 Tyler Knowles Orlando FL 253 28 69 28:10.5 9:05/M
3 Zack Whalen Eustis FL 507 25 96 29:26.4 9:30/M
4 Gary Mershon Leesburg FL 559 29 419 54:51.4 17:42/M
Top

Male 30 to 34

Place Name City Bib No Age Overall Total Time Pace
1 Randy Steil Mount Dora FL 454 34 11 21:23.1 6:54/M
2 George Champigny Orlando FL 541 33 20 24:02.4 7:45/M
3 Todd Jameson Sanford FL 224 34 21 24:07.9 7:47/M
4 Matthew Bryanc 2211 33 83 28:45.1 9:16/M
5 Jermaine Pulliam Deltona FL 369 34 165 33:49.8 10:55/M
6 Michael Weeman Mount Dora FL 501 32 170 34:04.1 10:59/M
7 Craig Williams Winter Garden FL 2104 30 287 43:19.5 13:58/M
8 Jason Dvorak Deltona FL 122 32 332 45:42.1 14:45/M
Top

Male 35 to 39

Place Name City Bib No Age Overall Total Time Pace
1 Rob Marens Mount Dora FL 289 35 12 22:04.6 7:07/M
2 Erik Vennesland Lady Lake FL 489 38 24 24:31.9 7:55/M
3 Jason Sheikh Winter Springs FL 423 38 45 26:34.7 8:34/M
4 Casey Jeffery Hillsboro OR 226 38 59 27:19.7 8:49/M
5 Jared Crowley Mount Dora FL 95 38 88 28:56.4 9:20/M
6 Matthew Lee Port Saint Lucie FL 269 39 89 29:06.5 9:23/M
7 Delroy Wilson Winter Garden FL 514 36 130 31:50.4 10:16/M
8 Daniel Sharff Eustis FL 422 38 153 33:11.0 10:42/M
9 Israel S Reut 1882 36 224 37:49.5 12:12/M
10 Stephen Gaymont Davenport FL 164 35 305 44:31.1 14:22/M
11 Stijn Van Colen Haines City FL 584 36 491 1:58:02.3 38:05/M
Top

Male 40 to 44

Place Name City Bib No Age Overall Total Time Pace
1 Nate Dorsey Land O Lakes FL 112 42 8 21:05.1 6:48/M
2 Larry Wolcott Altamonte Springs FL 590 42 14 22:52.4 7:23/M
3 Michael Johnston Port Saint Lucie FL 237 44 18 23:28.4 7:34/M
4 Steven Greenen Orlando FL 180 43 175 34:18.6 11:04/M
5 Michael Hooker Deltona FL 217 44 325 45:30.3 14:41/M
6 C.a. Vossberg Umatilla FL 586 40 361 48:44.5 15:43/M
7 Patrick Paroline Eustis FL 562 41 404 53:04.6 17:07/M
8 Marcas Zigi Apopka FL 2241 42 460 59:36.9 19:14/M
Top

Male 45 to 49

Place Name City Bib No Age Overall Total Time Pace
1 Wilson O Paulino Londrina 355 47 15 23:00.0 7:25/M
2 Joel Turransky Apopka FL 479 46 32 25:24.3 8:12/M
3 Jack Palkoner Lake Mary FL 348 47 50 27:00.9 8:43/M
4 Rob Mann Weirsdale FL 287 46 71 28:12.7 9:06/M
5 Jim Hampton Mount Dora FL 194 46 140 32:35.9 10:31/M
6 Greg Morrison Ocoee FL 326 45 159 33:31.0 10:49/M
7 William Picar Davenport FL 365 48 171 34:13.4 11:02/M
8 Steven Martinez Mount Dora FL 295 46 190 35:26.1 11:26/M
9 David Gresham Ilkley LDS 183 48 207 36:43.6 11:51/M
10 Randal Smith Jacksonville FL 573 48 211 36:49.9 11:53/M
11 Mike Clark Jacksonville FL 542 48 249 40:15.2 12:59/M
12 Craig Radzak Orange City FL 373 47 313 45:01.1 14:31/M
13 Chris James Bushnell FL 222 47 351 47:40.4 15:23/M
14 Neal Wright Mount Dora FL 522 45 358 48:38.2 15:41/M
15 Arom Evans Anchorage AK 130 45 428 55:15.8 17:49/M
16 Richard West Port Orange FL 505 48 449 57:13.9 18:27/M
Top

Male 50 to 54

Place Name City Bib No Age Overall Total Time Pace
1 Vergnhudvem Wim Longwood FL 2218 50 13 22:35.9 7:17/M
2 Joe Barrett Windermere FL 18 52 29 25:04.5 8:05/M
3 Bob Lenig Mount Dora FL 271 50 67 27:56.4 9:01/M
4 Todd Gay Tarpon Springs FL 163 50 68 28:01.9 9:02/M
5 Jose Yourgules Tarpon Springs FL 527 51 99 29:36.6 9:33/M
6 Steven Wagner Winter Haven FL 497 51 121 31:16.7 10:05/M
7 Chris Jeffords Temple Terrace FL 228 54 126 31:27.6 10:09/M
8 William Tobias Apopka FL 471 54 199 35:54.5 11:35/M
9 Robert Chmiel East Amherst NY 77 52 231 38:58.2 12:34/M
10 Dave Carroll Clermont FL 69 53 309 44:38.2 14:24/M
11 Michael Lecates Hollywood FL 268 54 344 47:08.0 15:12/M
12 Mike Light Mount Dora 275 53 381 50:26.7 16:16/M
13 Patrick Thomas Bowling Green KY 470 52 443 56:59.9 18:23/M
14 Bertrand Epaillard Mount Dora FL 127 53 470 1:00:59.5 19:40/M
Top

Male 55 to 59

Place Name City Bib No Age Overall Total Time Pace
1 Don White Astatula FL 510 56 72 28:14.6 9:06/M
2 Rafa Rivera Mount Dora FL 386 56 80 28:39.1 9:15/M
3 Donald Basti 2220 57 112 30:37.1 9:53/M
4 Anthony Davis Winter Garden FL 102 57 113 30:44.2 9:55/M
5 Steve Babcock Orange City FL 13 57 144 32:49.8 10:35/M
6 David Dewey Orlando FL 109 59 173 34:16.7 11:03/M
7 Marcel Spitz Orlando FL 451 59 196 35:45.5 11:32/M
8 Wade Bodiford Apopka FL 36 56 246 40:05.4 12:56/M
9 David Parsons Longwood FL 565 55 286 43:15.9 13:57/M
10 Bob Burns Eustis FL 53 59 345 47:10.4 15:13/M
11 Bruce Gold Deland FL 173 57 365 49:08.7 15:51/M
12 Tim Keefe Mount Dora FL 241 56 429 55:16.6 17:50/M
13 Scott Seal Apopka FL 419 57 456 57:53.8 18:40/M
14 Armando Garza Orlando FL 2233 56 489 1:40:51.6 32:32/M
Top

Male 60 to 64

Place Name City Bib No Age Overall Total Time Pace
1 Rick Cooper Tavares FL 87 64 37 25:47.0 8:19/M
2 Doug Vogel 2226 63 87 28:52.5 9:19/M
3 Tom Council Poinciana FL 90 63 93 29:13.5 9:25/M
4 Bill Oleen Cocoa FL 342 60 103 29:49.6 9:37/M
5 Michael Snyder Saint Cloud FL 447 60 135 32:16.5 10:25/M
6 Gary Thibodeau Leesburg FL 468 63 163 33:49.4 10:55/M
7 Kim Simpson Newberry FL 429 61 213 36:54.9 11:54/M
8 Elmore Santos Ocoee FL 409 61 219 37:38.5 12:08/M
9 Peter Hettmann Eustis FL 208 60 225 37:50.4 12:12/M
10 Patrick Kieri Saint Augustine FL 247 62 232 39:02.6 12:35/M
11 Mike Kozak Orlando FL 257 63 267 41:33.0 13:24/M
12 Tom Wyatt Clermont FL 524 60 284 43:00.0 13:52/M
13 Tk Lewis Mount Dora FL 274 64 315 45:08.4 14:34/M
14 Roger Fink Port Orange FL 138 63 382 50:29.7 16:17/M
15 Larry Burns Mount Dora FL 55 64 412 53:48.8 17:21/M
Top

Male 65 to 69

Place Name City Bib No Age Overall Total Time Pace
1 Charlie Kennedy Mount Dora FL 1501 66 23 24:21.1 7:51/M
2 Dudley Askew Mt Dora FL 11 66 105 29:51.9 9:38/M
3 Jim Cruite Tampa FL 96 66 143 32:46.9 10:34/M
4 Ronald Fox Umatilla FL 151 68 269 41:51.5 13:30/M
5 Steve Smith Orlando FL 434 66 334 45:54.2 14:48/M
6 John McMurran Chuluota FL 307 69 339 46:34.6 15:01/M
7 John Desruisseau Mount Plymouth FL 107 69 430 55:19.6 17:51/M
Top

Male 70 to 74

Place Name City Bib No Age Overall Total Time Pace
1 Andy Sendry Miami FL 571 70 79 28:33.8 9:13/M
2 Jack Slifer Ocala FL 432 71 202 36:31.3 11:47/M
3 Forrest Hackley Sorrento FL 190 71 208 36:47.1 11:52/M
4 Chief Ten Bears Bryant Tavares FL 47 73 210 36:48.4 11:52/M
5 Giles Pagetwilkes Mount Dora FL 1747 70 367 49:27.3 15:57/M
6 Patrick Fagan The Villages FL 133 71 368 49:29.4 15:58/M
7 Steven Gertel Orlando FL 166 71 471 1:01:22.4 19:48/M
Top

Male 75 to 79

Place Name City Bib No Age Overall Total Time Pace
1 Chuck McLaughlin Oviedo FL 302 77 244 40:02.8 12:55/M
2 Conard Peacock Leesburg FL 357 75 364 49:07.8 15:51/M
3 Curt Robinson Port Orange FL 389 76 431 55:19.7 17:51/M
Top

Male 80 and Over

Place Name City Bib No Age Overall Total Time Pace
1 Harold Smith Sebring FL 437 81 160 33:40.0 10:52/M
2 Jim Cox Eustis FL 91 81 282 42:53.9 13:50/M
3 Phil Radford The Villages FL 372 85 323 45:30.0 14:41/M
4 Hans Van Grondelle Mount Dora FL 487 82 439 56:57.4 18:22/M
Top

Female Open Winners

Place Name City Bib No Age Overall Total Time Pace
1 Mackenzie Czurak Winter Springs FL 98 16 2 19:30.0 6:17/M
2 Nicole Meers Sorrento FL 310 16 3 20:27.8 6:36/M
3 Lauren Buddendorff Mount Dora FL 49 18 4 20:34.5 6:38/M
Top

Female 13 and Under

Place Name City Bib No Age Overall Total Time Pace
1 Noelle Vu Sorrento FL 493 11 7 21:03.2 6:47/M
2 Ellen Cocurull Oviedo FL 85 12 25 24:33.0 7:55/M
3 Lilliana Vu Sorrento FL 494 9 43 26:30.3 8:33/M
4 Jennifer Swenson Parrish FL 464 12 49 26:58.0 8:42/M
5 Margaret Palkoner Lake Mary FL 351 9 65 27:43.0 8:56/M
6 Haley Stynchcomb Eustis FL 578 12 70 28:12.4 9:06/M
7 Fanta Fofana Lake Mary FL 141 11 84 28:48.7 9:17/M
8 Elizabeth Barrett Windermere FL 21 13 85 28:49.8 9:18/M
9 Jordan Barrett Windermere FL 19 13 95 29:22.5 9:28/M
10 Makayla Wagner Winter Haven FL 496 13 116 30:48.7 9:56/M
11 Olivia Barrett Windermere FL 20 13 119 31:06.4 10:02/M
12 Madison Tweedie Tavares FL 481 10 127 31:31.4 10:10/M
13 Amina Fofana Lake Mary FL 144 7 148 32:55.0 10:37/M
14 Annika Patel Mount Dora FL 353 6 180 34:49.8 11:14/M
15 Karly Rybicki Ormond Beach FL 31 6 233 39:08.5 12:37/M
16 Kaitlyn Rybicki Ormond Beach FL 34 5 235 39:12.4 12:39/M
17 Allison Lowell Eustis FL 557 6 290 43:32.3 14:03/M
18 Sophia Rivera Mount Dora FL 385 8 293 44:02.6 14:12/M
19 Abby Barfield 2219 9 301 44:16.1 14:17/M
20 Brayden Strnad Mount Dora FL 576 6 328 45:39.4 14:44/M
21 Maddalena Palkoner Lake Mary FL 350 12 350 47:38.2 15:22/M
22 Emma Paroline Eustis FL 564 4 394 52:26.0 16:55/M
23 Drew Paroline Eustis FL 563 6 396 52:27.0 16:55/M
24 Sally Sunnenberg Longwood FL 459 8 487 1:07:16.9 21:42/M
Top

Female 14 to 16

Place Name City Bib No Age Overall Total Time Pace
1 Grace Motl Mount Dora FL 328 16 102 29:44.2 9:35/M
2 Meghan Clark Jacksonville FL 543 15 251 40:43.3 13:08/M
3 Micah Johnson Leesburg FL 551 14 254 40:51.7 13:11/M
4 Aniya Monroe Tavares FL 325 14 280 42:43.7 13:47/M
5 Vanessa Grimes Tavares FL 184 14 281 42:43.9 13:47/M
6 Megan Garmany Mount Dora FL 157 14 366 49:27.1 15:57/M
7 Emily Hoagland Astatula FL 212 15 397 52:32.8 16:57/M
8 Hailey Teachman Tavares FL 467 14 402 52:57.0 17:05/M
9 Micayla Davis Tavares FL 101 14 410 53:26.9 17:14/M
10 Skye White Tavares FL 509 14 452 57:27.9 18:32/M
11 Ashlyn Reed Tavares FL 376 14 453 57:27.9 18:32/M
Top

Female 17 to 19

Place Name City Bib No Age Overall Total Time Pace
1 Kianna Saussy Lakeland FL 412 18 204 36:38.3 11:49/M
2 Lauren Suansing Ocoee FL 580 18 388 51:36.0 16:39/M
3 Brooke Anderson Maitland FL 929 17 395 52:27.0 16:55/M
4 Mackenzie Fox Eustis FL 149 17 436 56:22.8 18:11/M
Top

Female 20 to 24

Place Name City Bib No Age Overall Total Time Pace
1 Lea Campopiano Apopka FL 63 21 60 27:20.9 8:49/M
2 Marissa Campopiano Apopka FL 62 24 108 30:11.5 9:44/M
3 Mariah Hampton Mount Dora FL 195 20 191 35:29.7 11:27/M
4 Morgan Hutchins Valrico FL 1442 20 192 35:32.1 11:28/M
5 Cecelia Koon Gainesville FL 254 24 383 50:57.5 16:26/M
6 Jillane Santos Ocoee FL 410 21 387 51:34.3 16:38/M
7 Genesis Rodriguez Orlando FL 391 24 406 53:08.6 17:08/M
8 Elizabeth Caban Mount Dora FL 57 24 445 57:03.3 18:24/M
Top

Female 25 to 29

Place Name City Bib No Age Overall Total Time Pace
1 Ariel Silverstein Mount Dora FL 572 27 28 25:00.3 8:04/M
2 Rachael Zurita Winter Garden FL 534 27 125 31:25.0 10:08/M
3 Emily Trimble Altamonte Springs FL 478 28 128 31:34.0 10:11/M
4 Elissa Martin Mount Dora FL 292 27 132 32:00.3 10:19/M
5 Breann Hettmann Zephyrhills FL 207 28 136 32:18.9 10:25/M
6 Nicole Dearmas Sanford FL 103 29 137 32:28.9 10:28/M
7 Karla Weeman Mount Dora FL 500 28 147 32:52.7 10:36/M
8 Devyn Prado Apopka FL 368 28 161 33:45.8 10:53/M
9 Haley Kandle Winter Springs FL 2245 26 167 33:57.1 10:57/M
10 Lindsey Bressi Bradenton Beach FL 42 29 169 34:03.4 10:59/M
11 Christina Bracco Leesburg FL 39 27 240 39:42.0 12:48/M
12 Kate Gould Lady Lake FL 175 28 253 40:51.1 13:11/M
13 Kylie Williams Winter Garden FL 2103 27 288 43:19.9 13:58/M
14 Natalia Mendez Orlando FL 312 29 292 43:47.7 14:07/M
15 Megan Lajara Altamonte Springs FL 258 29 319 45:16.8 14:36/M
16 Brooke Strnad Mount Dora FL 575 29 331 45:41.5 14:44/M
17 Sabrina Robinson Winter Springs FL 1844 28 337 46:32.8 15:01/M
18 Kristina Roberts Rockledge FL 388 28 466 1:00:18.7 19:27/M
Top

Female 30 to 34

Place Name City Bib No Age Overall Total Time Pace
1 Grace Crawford Eustis FL 546 33 31 25:17.4 8:09/M
2 Ann Crotts Oxford FL 94 31 39 26:02.0 8:24/M
3 Brenna Halsey Longwood FL 192 30 51 27:01.1 8:43/M
4 Mindy Medley Sorrento FL 308 34 74 28:18.1 9:08/M
5 Jamie Roberts Grand Island FL 570 34 77 28:24.9 9:10/M
6 Toya Johnson Winter Garden FL 233 32 131 31:51.8 10:16/M
7 Monica Bailey Sorrento FL 537 34 141 32:38.9 10:32/M
8 Samantha Benner Fern Park FL 32 32 152 33:02.6 10:39/M
9 Natalie Vose Clermont FL 490 33 157 33:21.4 10:45/M
10 Jenn Weller Ocoee FL 503 30 158 33:31.0 10:49/M
11 Vanessa Castro Longwood FL 73 32 220 37:43.7 12:10/M
12 Rebecca Rybicki Ormond Beach FL 23 31 234 39:09.0 12:38/M
13 Christian Coker Deland FL 1096 31 271 42:03.9 13:34/M
14 Kelli Branton Grand Island FL 540 34 291 43:37.2 14:04/M
15 Jennifer Wood Summerfield FL 516 33 320 45:16.9 14:36/M
16 Megan Pagano Tavares FL 347 32 326 45:30.6 14:41/M
17 Meghan Carman Altamonte Springs FL 65 34 352 47:47.8 15:25/M
18 Valerie Laughlin Minneola FL 556 31 354 47:52.9 15:26/M
19 Amber Lanier Groveland FL 555 30 370 49:41.2 16:02/M
20 Jessica Kirkland Sorrento FL 251 33 438 56:25.0 18:12/M
21 Megan Phipps Sorrento FL 362 30 444 57:03.0 18:24/M
22 Marissa Perea Bushnell FL 361 30 447 57:08.5 18:26/M
23 Caitlin Roberts Mount Dora FL 387 34 457 57:54.1 18:41/M
24 Sarah Ford Apopka FL 145 31 490 1:52:47.5 36:23/M
Top

Female 35 to 39

Place Name City Bib No Age Overall Total Time Pace
1 Rebecca Stynchcomb Eustis FL 577 35 16 23:06.2 7:27/M
2 Amy Fedock Mount Dora FL 135 37 19 23:46.4 7:40/M
3 Robyn McMullen Mount Dora FL 306 39 26 24:37.9 7:56/M
4 Brienne Sharff Eustis FL 421 35 33 25:26.5 8:12/M
5 Jennifer Croeze Mount Dora FL 93 36 52 27:08.1 8:45/M
6 Katalin Kiss Deltona FL 252 36 58 27:18.8 8:48/M
7 Olivia Herrera Mount Dora FL 206 38 78 28:31.5 9:12/M
8 Heather Fagan Orlando FL 132 37 86 28:52.2 9:19/M
9 Fabiele Martinelli Piovezan Marilandia Do Sul 294 36 90 29:07.6 9:24/M
10 Cindy Williams Winter Haven FL 511 39 117 30:49.3 9:56/M
11 Brandy Harris Tavares FL 201 36 122 31:18.5 10:06/M
12 Heather Fofana Lake Mary FL 140 36 149 32:57.2 10:38/M
13 Zdenka Okanikova Orlando FL 1723 36 150 32:57.4 10:38/M
14 Shanda Solana Deltona FL 448 39 184 35:01.8 11:18/M
15 Sarah Hampton Mount Dora FL 193 38 189 35:25.3 11:25/M
16 Monica Sanchez-Ayers Lake Mary FL 407 39 193 35:32.6 11:28/M
17 Yara Regan Eustis FL 377 35 209 36:47.4 11:52/M
18 Sarah Graber Altamonte Springs FL 176 37 215 37:17.9 12:02/M
19 Joy McKnight Kissimmee FL 301 38 216 37:27.5 12:05/M
20 Meghan Roth Casselberry FL 401 38 222 37:44.4 12:10/M
21 Lindsey Killi Orlando FL 248 35 227 37:56.2 12:14/M
22 Kira Lake Lake Mary FL 260 35 236 39:24.9 12:43/M
23 Wendy Thomas Longwood FL 2017 39 238 39:33.2 12:45/M
24 Mandy Pagano Leesburg FL 346 37 245 40:03.4 12:55/M
25 Wendy Yovaish Orlando FL 528 37 248 40:13.8 12:58/M
26 Kiki Albanese Orlando FL 535 38 259 41:04.6 13:15/M
27 Tiffany Thorpe Altamonte Springs FL 582 35 270 42:01.9 13:33/M
28 Crystal Golden Longwood FL 174 38 275 42:29.5 13:42/M
29 Melissa Jervis Lakeland FL 231 37 294 44:07.8 14:14/M
30 Rebecca Swanson 539 37 307 44:37.7 14:24/M
31 Rebecca Swanson Deland FL 461 37 308 44:37.8 14:24/M
32 Aliea Diaram Winter Garden FL 1172 37 312 44:52.9 14:28/M
33 Nicole Tarbox Titusville FL 466 37 336 46:00.3 14:50/M
34 Julia Rousey Mount Dora FL 402 39 340 46:39.4 15:03/M
35 Hillery Nicholas Orlando FL 336 37 374 49:53.1 16:05/M
36 Toni Hannah Orlandoy FL 197 37 385 51:16.9 16:32/M
37 Jessica Winther Kissimmee FL 589 35 390 51:54.3 16:45/M
38 Kay Ludd-Demps Eustis FL 283 39 417 54:39.1 17:38/M
39 Dawn Rose Tavares FL 400 37 425 55:09.1 17:47/M
40 Carla Tarantino Orlando FL 465 38 426 55:10.4 17:48/M
41 Nicole Minkovetsky Daytona Beach FL 322 36 458 57:54.3 18:41/M
42 Sarah Gust Comstock Park MI 187 39 473 1:01:31.9 19:51/M
43 Rebecca Bell Lansing MI 28 35 477 1:01:46.0 19:55/M
44 Audie Douglas Winter Springs FL 113 35 479 1:02:02.6 20:01/M
45 Jaime Candelori Longwood FL 64 39 488 1:07:18.0 21:43/M
Top

Female 40 to 44

Place Name City Bib No Age Overall Total Time Pace
1 Shannon Vossberg Umatilla FL 491 41 46 26:37.5 8:35/M
2 Xenia Cogswell Eustis FL 265 40 48 26:56.4 8:41/M
3 Natalie Cocurull Oviedo FL 84 42 56 27:16.7 8:48/M
4 Brandy Sheikh Winter Springs FL 424 44 66 27:56.2 9:01/M
5 Stephanie Mohrenne Mount Dora FL 323 44 75 28:18.8 9:08/M
6 Dawn Koval Saint Augustine FL 255 40 76 28:22.8 9:09/M
7 Cj Forward Mount Dora FL 147 40 98 29:31.0 9:31/M
8 Jennifer Smith Oviedo FL 442 43 109 30:17.3 9:46/M
9 Diana Lopez Sanford FL 279 44 114 30:46.8 9:55/M
10 Christine Berk Orlando FL 964 44 134 32:11.7 10:23/M
11 Amy Picar Davenport FL 364 41 151 32:59.8 10:38/M
12 Nichole Schroeder Sorrento FL 414 40 154 33:14.2 10:43/M
13 Amanda Peace Eustis FL 356 42 156 33:20.2 10:45/M
14 Joy Greenen Orlando FL 179 43 172 34:16.6 11:03/M
15 Kristi Richardson Debary FL 381 40 183 35:01.5 11:18/M
16 Madelyn Nieves Alexandria VA 337 40 200 36:01.1 11:37/M
17 Jill Brown Mount Dora FL 45 40 212 36:53.9 11:54/M
18 Trista Hobbs Tavares FL 214 40 229 38:31.3 12:25/M
19 Maria Johnson Tavares FL 232 43 247 40:13.2 12:58/M
20 Lina Torres Kissimmee FL 475 44 268 41:37.5 13:25/M
21 Sandra Smith Sanford FL 1966 44 277 42:31.9 13:43/M
22 Erika Barfield Auburndale FL 17 41 300 44:16.0 14:17/M
23 Kellie Singer Tavares FL 431 40 306 44:34.5 14:23/M
24 Amy Hooker Deltona FL 216 43 324 45:30.3 14:41/M
25 Geni Wright Mount Dora FL 521 43 341 47:04.5 15:11/M
26 Allison Brooks Kissimmee FL 43 41 355 48:01.5 15:29/M
27 Jenny Blanos Matthews NC 35 44 372 49:53.0 16:05/M
28 Jessie Undieme Orlando FL 482 42 373 49:53.0 16:05/M
29 Kristana Reitz Orlando FL 378 41 391 51:56.0 16:45/M
30 Amy Paroline Eustis FL 561 42 405 53:05.4 17:07/M
31 Ginny Lynne Johnston Port Saint Lucie FL 236 43 432 55:20.8 17:51/M
32 Shelley Reed Tavares FL 375 42 454 57:28.1 18:32/M
33 Sunshine White Tavares FL 508 41 478 1:01:49.8 19:56/M
34 Evelyn Bell Orlando FL 29 44 483 1:05:39.1 21:11/M
Top

Female 45 to 49

Place Name City Bib No Age Overall Total Time Pace
1 Catherine Sagal Oxford FL 406 45 34 25:35.5 8:15/M
2 Susan Lowell Eustis FL 282 46 42 26:15.1 8:28/M
3 Melissa Vu Sorrento FL 492 46 44 26:30.7 8:33/M
4 Jen Desruisseau Anchorage AK 105 46 47 26:48.7 8:39/M
5 Pam Gladd Winter Garden FL 171 46 73 28:16.2 9:07/M
6 Shannon Duffy Maitland FL 118 45 91 29:07.6 9:24/M
7 Pam Wolf Tarpon Springs FL 515 47 111 30:32.9 9:51/M
8 Jessica Rogers Lakeland FL 398 47 123 31:20.8 10:06/M
9 Katherine Barski Palm Beach Gardens FL 22 47 139 32:33.9 10:30/M
10 Kerry Mullen Mount Dora FL 329 47 166 33:52.5 10:55/M
11 Adrienne Uppole Mount Dora FL 483 46 168 34:00.3 10:58/M
12 Michell Carroll Apopka FL 67 45 181 34:50.5 11:14/M
13 Julie Baker Leesburg FL 15 47 182 34:54.7 11:15/M
14 Jacqueline Bodnar Port Orange FL 38 46 185 35:06.5 11:19/M
15 Melissa Lasso Sanford FL 266 45 186 35:15.0 11:22/M
16 Jeanette Nederveen Montverde FL 334 49 188 35:25.1 11:25/M
17 Selina Bowers Grand Island FL 593 47 194 35:42.0 11:31/M
18 Debbie Clark Larkhall GLG 82 46 206 36:42.9 11:50/M
19 Erika Corley Wildwood FL 88 47 217 37:30.5 12:06/M
20 Laura Garcia Longwood FL 156 48 237 39:32.0 12:45/M
21 Julie Hoagland Astatula FL 213 49 242 39:57.6 12:53/M
22 Catherine Kaukinen Winter Park FL 240 48 261 41:07.4 13:16/M
23 Diedre Lambert Winter Garden FL 554 46 262 41:11.4 13:17/M
24 Diana Mejia Tavares FL 311 45 265 41:21.3 13:20/M
25 Tami Rhodes Bowling Green FL 379 49 273 42:09.4 13:36/M
26 Mimi Beauford Orlando FL 25 48 302 44:17.6 14:17/M
27 Shelley Benner Mount Dora FL 33 49 304 44:22.7 14:19/M
28 Rhonda Dunham Orlando FL 119 46 335 46:00.2 14:50/M
29 Laura Anderson Maitland FL 928 48 353 47:50.9 15:26/M
30 Karen Alexander Deland FL 5 49 357 48:28.0 15:38/M
31 Linda Denby Lady Lake FL 104 49 360 48:43.4 15:43/M
32 Monica Adams-Christenson Lake Mary FL 4 45 362 48:47.4 15:44/M
33 Cherish Garrett Mount Dora FL 549 48 376 49:53.2 16:05/M
34 Michelle Neely Orlando FL 335 46 377 49:53.4 16:05/M
35 Jodi Brown Winter Springs FL 46 47 378 49:58.3 16:07/M
36 Melanie Calloway Riverview FL 60 45 386 51:17.4 16:33/M
37 Victoria Lauteria Mount Dora FL 267 48 414 54:31.8 17:35/M
38 Lori Meadows Jacksonville FL 558 45 441 56:59.3 18:23/M
39 Rebecca James Bushnell FL 223 46 446 57:07.2 18:25/M
40 Tiffany Zigo Apopka FL 2240 46 461 59:38.1 19:14/M
41 Kristina Bishop Mount Dora FL 538 47 463 59:41.0 19:15/M
Top

Female 50 to 54

Place Name City Bib No Age Overall Total Time Pace
1 Annette Jarvis Tavares FL 225 51 54 27:14.8 8:47/M
2 Kristine Buddendorff Mount Dora FL 50 51 64 27:41.1 8:56/M
3 Michelle Brown Mount Dora FL 44 52 106 29:58.5 9:40/M
4 Linda Goddard Apopka FL 1309 52 118 30:56.4 9:59/M
5 Taeko Ozawa Orlando FL 344 50 120 31:16.1 10:05/M
6 Cindra Bellingham Leesburg FL 30 54 164 33:49.5 10:55/M
7 Cindy Deprospero Mount Dora FL 547 53 179 34:41.7 11:11/M
8 Kealey West Longwood FL 504 54 197 35:54.4 11:35/M
9 Margaret Tobias Apopka FL 472 53 198 35:54.4 11:35/M
10 Cat Carosone Longwood FL 66 50 239 39:33.3 12:45/M
11 Pamela Bauman Clermont FL 24 54 260 41:06.9 13:15/M
12 Alley Williams Eustis FL 512 52 263 41:15.7 13:18/M
13 Jennifer Tweedie Tavares FL 480 52 264 41:16.3 13:19/M
14 Michelle Keener Seminole FL 243 51 276 42:30.2 13:43/M
15 Maurin Johnson Orange City FL 234 51 279 42:40.8 13:46/M
16 Sandy Kehoe Leesburg FL 552 53 283 42:57.5 13:51/M
17 Chaitrali Karve Eustis FL 239 50 289 43:32.2 14:03/M
18 Dalle Rivera Mount Dora FL 383 52 295 44:08.4 14:14/M
19 Carol Carroll Clermont FL 68 51 310 44:38.3 14:24/M
20 Sandy Radzak Orange City FL 1794 53 314 45:01.2 14:31/M
21 Ruth Loescher Eustis FL 276 54 318 45:16.4 14:36/M
22 Patricia Beckwith Inverness FL 26 52 322 45:21.2 14:38/M
23 Margaret Martin Winter Park FL 291 54 343 47:07.2 15:12/M
24 Judith Oleen Cocoa FL 341 54 349 47:18.1 15:15/M
25 Lynn Christian Mount Dora FL 80 50 356 48:12.7 15:33/M
26 Annie Gibson Jacksonville FL 167 54 398 52:36.8 16:58/M
27 Donna Nunley Seffner FL 339 52 400 52:55.7 17:04/M
28 Lisa Kern Fleming Island FL 245 51 418 54:43.4 17:39/M
29 Michelle Read Winter Park FL 374 52 422 55:03.8 17:45/M
30 Melinda Thomas Bowling Green KY 469 50 442 56:59.9 18:23/M
31 Tracey Frier Mount Dora FL 154 51 448 57:08.8 18:26/M
32 Valerie Pagan Apopka FL 345 53 455 57:53.6 18:40/M
33 Teresa Steed Leesburg FL 452 54 464 59:44.9 19:16/M
34 Liz Zeitler Orlando FL 532 52 468 1:00:54.7 19:39/M
35 Janice Epaillard Mount Dora FL 126 53 474 1:01:32.1 19:51/M
36 Kelli Martin Apopka FL 293 53 480 1:04:09.4 20:42/M
37 Wendy Walling Apopka FL 498 52 481 1:05:06.4 21:00/M
38 Melissa Lee Saint Augustine FL 1563 51 482 1:05:33.2 21:09/M
Top

Female 55 to 59

Place Name City Bib No Age Overall Total Time Pace
1 Melissa Corp Lake Mary FL 591 58 53 27:13.3 8:47/M
2 Sherrie Kingsley Cooperstown NY 1513 58 63 27:34.1 8:54/M
3 Mary Russell Saint Cloud FL 1873 59 82 28:42.9 9:15/M
4 Debbie Zeak Ocala FL 531 59 92 29:10.6 9:25/M
5 Mary Lou Marcotte The Villages FL 288 56 100 29:38.1 9:34/M
6 Lynn Killian Tarpon Springs FL 249 57 138 32:33.5 10:30/M
7 Phuong Pegoraro Deland FL 359 56 146 32:51.3 10:36/M
8 Lori Eagen Kissimmee FL 548 55 155 33:16.5 10:44/M
9 Karen Kieri Saint Augustine FL 246 59 162 33:49.2 10:55/M
10 Rhonda Allotto Sorrento FL 536 58 178 34:33.5 11:09/M
11 Cammie Dewey Orlando FL 108 56 201 36:03.9 11:38/M
12 Estela Suansing Ocoee FL 579 56 203 36:31.9 11:47/M
13 Julie Ashley Lakeland FL 10 55 214 37:03.2 11:57/M
14 Paula Gray Orlando FL 178 59 230 38:58.0 12:34/M
15 Kimberly Bodiford Apopka FL 37 56 243 40:01.9 12:55/M
16 Trudy Travers Port Orange FL 477 57 252 40:46.8 13:09/M
17 Gail Piazza Eustis FL 363 57 256 40:57.9 13:13/M
18 Dayci Burnette-Snyder Saint Cloud FL 52 55 266 41:30.7 13:23/M
19 Lynne Mahony Mount Dora FL 286 56 316 45:15.3 14:36/M
20 Heidi Loescher Eustis FL 277 56 317 45:15.6 14:36/M
21 Kimberly Warner Tampa FL 588 56 330 45:41.5 14:44/M
22 Kathy Burns Eustis FL 54 56 346 47:11.5 15:13/M
23 Joni Hansen Groveland FL 550 59 371 49:41.6 16:02/M
24 Barbara Lane Tavares FL 263 57 392 52:15.7 16:51/M
25 Nancy Monahan Jacksonville FL 324 57 399 52:49.8 17:02/M
26 Debbie Holmes Saint Johns FL 215 57 403 52:58.0 17:05/M
27 Luz Rodriguez Orlando FL 392 55 407 53:09.4 17:09/M
28 Amy Campbell Mount Dora FL 61 57 408 53:18.6 17:12/M
29 Janet Jacupke Melbourne FL 221 55 413 54:08.3 17:28/M
30 Elizabeth Ascencio-Mckay Davenport FL 9 57 415 54:34.1 17:36/M
31 Rebecca Adams Leesburg FL 3 57 424 55:09.1 17:47/M
32 Charlene Francis Jacksonville FL 152 57 433 55:33.5 17:55/M
33 Rebecca Harvey Tavares FL 203 56 465 59:47.7 19:17/M
Top

Female 60 to 64

Place Name City Bib No Age Overall Total Time Pace
1 Linda Kozak Orlando FL 256 61 81 28:39.6 9:15/M
2 Heidi Leon Apopka FL 272 61 104 29:51.5 9:38/M
3 Winifred Begley Eustis FL 27 61 107 30:05.0 9:42/M
4 Anna M. Diaz Deland FL 110 60 142 32:45.0 10:34/M
5 Janet Wyatt Clermont FL 523 60 145 32:50.3 10:35/M
6 Denice Rogers Umatilla FL 397 60 176 34:20.1 11:05/M
7 Muriel Fox Umatilla FL 150 63 250 40:16.9 12:59/M
8 Karen Curtis Daytona Beacdh FL 1138 60 257 40:59.7 13:13/M
9 Dawn Hagarty Eustis FL 191 61 258 41:01.0 13:14/M
10 Cindy Coates Somerset MA 83 60 272 42:04.7 13:34/M
11 Beth Lewis Mount Dora FL 273 61 303 44:18.3 14:17/M
12 Elise Enloe Oviedo FL 125 62 321 45:17.8 14:36/M
13 Pat Garza Orlando FL 160 61 342 47:05.1 15:11/M
14 Marybeth Farrell Deland FL 1232 61 369 49:39.8 16:01/M
15 Linda Solash-Reed Winter Park FL 449 62 384 51:14.8 16:32/M
16 Vicki Jensen Orlando FL 230 60 389 51:50.0 16:43/M
17 Teresita Castillo Miami FL 72 61 401 52:55.9 17:04/M
18 Christine Hawkes Mount Dora FL 204 64 409 53:19.3 17:12/M
19 Pat Smith Tavares FL 438 64 411 53:38.9 17:18/M
20 Diana Breitenbruck Eustis FL 41 61 416 54:39.0 17:38/M
21 Phyllis Scott Longwood FL 417 62 420 55:01.9 17:45/M
22 Linda Francis Mount Dora FL 153 63 434 55:56.6 18:03/M
23 Michele Van Grondelle Mount Dora FL 486 63 440 56:58.8 18:23/M
24 Paula Daoust Kansas City KS 1145 63 451 57:20.9 18:30/M
25 Bertha Jennings Jacksonville FL 229 61 462 59:38.9 19:14/M
26 Suzanne Cubberley Mount Dora FL 97 63 475 1:01:33.3 19:51/M
27 Donna Sunnenberg Lake Mary FL 581 63 485 1:07:14.1 21:41/M
Top

Female 65 to 69

Place Name City Bib No Age Overall Total Time Pace
1 Nancy Kelly Longwood FL 244 65 115 30:48.1 9:56/M
2 Carol Fagan The Villages FL 134 67 124 31:22.1 10:07/M
3 Barbara Foster Apopka FL 148 69 129 31:50.0 10:16/M
4 Diane Spicer Tampa FL 450 65 174 34:18.0 11:04/M
5 Jenny Gillo Oviedo FL 168 65 221 37:44.0 12:10/M
6 Terrie Estes Orlando FL 129 66 255 40:57.1 13:13/M
7 Esther Burns Mount Dora FL 56 66 347 47:13.3 15:14/M
8 Justine Roecker Crystal River FL 393 66 380 50:19.9 16:14/M
9 Susan Gertel Orlando FL 165 66 393 52:22.3 16:54/M
10 Linda Mingay Mount Dora FL 321 69 435 55:57.4 18:03/M
Top

Female 70 to 74

Place Name City Bib No Age Overall Total Time Pace
1 Kathryn Carter-Golden Mount Dora FL 71 70 177 34:26.6 11:06/M
2 Fran Seabeck North Canton OH 418 70 278 42:40.4 13:46/M
3 Patricia Desruisseau Mount Plymouth FL 106 70 338 46:33.5 15:01/M
4 Dianne Gardner Port Orange FL 1286 70 348 47:14.6 15:14/M
5 Geraldine Prusko Mount Dora FL 569 70 379 50:01.9 16:08/M
6 Terry Hunt Valrico FL 218 71 421 55:01.9 17:45/M
7 Shirley Harris Mount Dora FL 198 74 467 1:00:34.7 19:32/M
8 Barbara Scott Middleburg FL 416 70 484 1:06:09.0 21:20/M
Top

Female 75 to 79

Place Name City Bib No Age Overall Total Time Pace
1 Dianne Showers Sorrento FL 426 75 274 42:27.9 13:42/M
2 Audrey J. Smith Sebring FL 436 78 297 44:13.5 14:16/M
3 Priscilla Peacock Leesburg FL 358 75 423 55:03.9 17:45/M
Top

Female 80 and Over

Place Name City Bib No Age Overall Total Time Pace
1 Danice Walsh Mount Dora FL 499 81 476 1:01:34.0 19:52/M